sensor_id;sensor_type;location;lat;lon;timestamp;pressure;altitude;pressure_sealevel;temperature;humidity
53270;BME280;39159;45.634;9.420;2023-05-09T00:00:05;99173.44;;;15.48;100.00
53270;BME280;39159;45.634;9.420;2023-05-09T00:02:31;99182.16;;;15.50;100.00
53270;BME280;39159;45.634;9.420;2023-05-09T00:04:59;99181.53;;;15.44;100.00
53270;BME280;39159;45.634;9.420;2023-05-09T00:07:28;99180.94;;;15.39;100.00
53270;BME280;39159;45.634;9.420;2023-05-09T00:09:53;99169.97;;;15.39;100.00
53270;BME280;39159;45.634;9.420;2023-05-09T00:12:19;99170.28;;;15.37;100.00
53270;BME280;39159;45.634;9.420;2023-05-09T00:14:44;99169.00;;;15.34;100.00
53270;BME280;39159;45.634;9.420;2023-05-09T00:17:10;99179.22;;;15.34;100.00
53270;BME280;39159;45.634;9.420;2023-05-09T00:19:38;99171.41;;;15.36;100.00
53270;BME280;39159;45.634;9.420;2023-05-09T00:22:05;99169.13;;;15.38;100.00
53270;BME280;39159;45.634;9.420;2023-05-09T00:24:33;99164.25;;;15.44;100.00
53270;BME280;39159;45.634;9.420;2023-05-09T00:26:58;99165.84;;;15.45;100.00
53270;BME280;39159;45.634;9.420;2023-05-09T00:29:24;99161.16;;;15.45;100.00
53270;BME280;39159;45.634;9.420;2023-05-09T00:31:49;99157.13;;;15.43;100.00
53270;BME280;39159;45.634;9.420;2023-05-09T00:34:15;99161.50;;;15.44;100.00
53270;BME280;39159;45.634;9.420;2023-05-09T00:36:40;99154.38;;;15.43;100.00
53270;BME280;39159;45.634;9.420;2023-05-09T00:39:06;99156.53;;;15.37;100.00
53270;BME280;39159;45.634;9.420;2023-05-09T00:41:32;99153.31;;;15.35;100.00
53270;BME280;39159;45.634;9.420;2023-05-09T00:43:57;99145.25;;;15.30;100.00
53270;BME280;39159;45.634;9.420;2023-05-09T00:46:23;99152.91;;;15.24;100.00
53270;BME280;39159;45.634;9.420;2023-05-09T00:48:48;99144.16;;;15.22;100.00
53270;BME280;39159;45.634;9.420;2023-05-09T00:51:14;99150.94;;;15.25;100.00
53270;BME280;39159;45.634;9.420;2023-05-09T00:53:40;99146.59;;;15.24;100.00
53270;BME280;39159;45.634;9.420;2023-05-09T00:56:05;99147.81;;;15.14;100.00
53270;BME280;39159;45.634;9.420;2023-05-09T00:58:31;99143.44;;;15.13;100.00
53270;BME280;39159;45.634;9.420;2023-05-09T01:00:57;99135.38;;;15.08;100.00
53270;BME280;39159;45.634;9.420;2023-05-09T01:03:23;99140.09;;;15.07;100.00
53270;BME280;39159;45.634;9.420;2023-05-09T01:05:57;99138.31;;;15.03;100.00
53270;BME280;39159;45.634;9.420;2023-05-09T01:11:09;99143.53;;;14.96;100.00
53270;BME280;39159;45.634;9.420;2023-05-09T01:16:47;99138.91;;;14.87;100.00
53270;BME280;39159;45.634;9.420;2023-05-09T01:19:31;99144.41;;;14.87;100.00
53270;BME280;39159;45.634;9.420;2023-05-09T01:21:58;99138.91;;;14.87;100.00
53270;BME280;39159;45.634;9.420;2023-05-09T01:25:01;99139.03;;;14.91;100.00
53270;BME280;39159;45.634;9.420;2023-05-09T01:27:44;99128.84;;;14.91;100.00
53270;BME280;39159;45.634;9.420;2023-05-09T01:30:14;99124.03;;;14.88;100.00
53270;BME280;39159;45.634;9.420;2023-05-09T01:32:42;99128.72;;;14.88;100.00
53270;BME280;39159;45.634;9.420;2023-05-09T01:35:11;99135.81;;;14.89;100.00
53270;BME280;39159;45.634;9.420;2023-05-09T01:37:41;99124.34;;;14.87;100.00
53270;BME280;39159;45.634;9.420;2023-05-09T01:40:18;99129.38;;;14.85;100.00
53270;BME280;39159;45.634;9.420;2023-05-09T01:42:56;99132.59;;;14.87;100.00
53270;BME280;39159;45.634;9.420;2023-05-09T01:45:23;99133.06;;;14.89;100.00
53270;BME280;39159;45.634;9.420;2023-05-09T01:47:49;99134.53;;;14.86;100.00
53270;BME280;39159;45.634;9.420;2023-05-09T01:50:17;99138.09;;;14.87;100.00
53270;BME280;39159;45.634;9.420;2023-05-09T01:52:46;99141.19;;;14.85;100.00
53270;BME280;39159;45.634;9.420;2023-05-09T01:55:14;99136.47;;;14.86;100.00
53270;BME280;39159;45.634;9.420;2023-05-09T01:57:42;99133.41;;;14.87;100.00
53270;BME280;39159;45.634;9.420;2023-05-09T02:00:09;99130.31;;;14.89;100.00
53270;BME280;39159;45.634;9.420;2023-05-09T02:02:37;99134.00;;;14.93;100.00
53270;BME280;39159;45.634;9.420;2023-05-09T02:05:05;99124.16;;;14.92;100.00
53270;BME280;39159;45.634;9.420;2023-05-09T02:07:31;99123.19;;;14.97;100.00
53270;BME280;39159;45.634;9.420;2023-05-09T02:09:58;99126.19;;;15.04;100.00
53270;BME280;39159;45.634;9.420;2023-05-09T02:12:25;99124.03;;;15.09;100.00
53270;BME280;39159;45.634;9.420;2023-05-09T02:14:50;99117.91;;;15.12;100.00
53270;BME280;39159;45.634;9.420;2023-05-09T02:17:16;99116.56;;;15.19;100.00
53270;BME280;39159;45.634;9.420;2023-05-09T02:19:42;99118.16;;;15.20;100.00
53270;BME280;39159;45.634;9.420;2023-05-09T02:22:08;99126.88;;;15.22;100.00
53270;BME280;39159;45.634;9.420;2023-05-09T02:24:35;99134.19;;;15.18;100.00
53270;BME280;39159;45.634;9.420;2023-05-09T02:27:04;99125.47;;;15.16;100.00
53270;BME280;39159;45.634;9.420;2023-05-09T02:29:34;99124.34;;;15.17;100.00
53270;BME280;39159;45.634;9.420;2023-05-09T02:32:09;99124.34;;;15.17;100.00
53270;BME280;39159;45.634;9.420;2023-05-09T02:34:36;99120.91;;;15.20;100.00
53270;BME280;39159;45.634;9.420;2023-05-09T02:37:03;99119.31;;;15.19;100.00
53270;BME280;39159;45.634;9.420;2023-05-09T02:39:30;99117.34;;;15.19;100.00
53270;BME280;39159;45.634;9.420;2023-05-09T02:41:56;99119.31;;;15.19;100.00
53270;BME280;39159;45.634;9.420;2023-05-09T02:44:25;99115.09;;;15.21;100.00
53270;BME280;39159;45.634;9.420;2023-05-09T02:46:51;99111.53;;;15.21;100.00
53270;BME280;39159;45.634;9.420;2023-05-09T02:49:16;99110.25;;;15.18;100.00
53270;BME280;39159;45.634;9.420;2023-05-09T02:51:42;99114.94;;;15.18;100.00
53270;BME280;39159;45.634;9.420;2023-05-09T02:54:07;99120.44;;;15.18;100.00
53270;BME280;39159;45.634;9.420;2023-05-09T02:56:33;99120.91;;;15.20;100.00
53270;BME280;39159;45.634;9.420;2023-05-09T02:58:58;99122.53;;;15.21;100.00
53270;BME280;39159;45.634;9.420;2023-05-09T03:01:24;99121.38;;;15.22;100.00
53270;BME280;39159;45.634;9.420;2023-05-09T03:03:49;99120.06;;;15.28;100.00
53270;BME280;39159;45.634;9.420;2023-05-09T03:06:15;99117.09;;;15.33;100.00
53270;BME280;39159;45.634;9.420;2023-05-09T03:08:40;99123.53;;;15.37;100.00
53270;BME280;39159;45.634;9.420;2023-05-09T03:11:06;99128.34;;;15.40;100.00
53270;BME280;39159;45.634;9.420;2023-05-09T03:13:31;99125.41;;;15.45;100.00
53270;BME280;39159;45.634;9.420;2023-05-09T03:15:56;99122.31;;;15.47;100.00
53270;BME280;39159;45.634;9.420;2023-05-09T03:18:22;99132.97;;;15.48;100.00
53270;BME280;39159;45.634;9.420;2023-05-09T03:20:47;99127.28;;;15.53;100.00
53270;BME280;39159;45.634;9.420;2023-05-09T03:23:13;99127.09;;;15.59;100.00
53270;BME280;39159;45.634;9.420;2023-05-09T03:25:38;99129.16;;;15.62;100.00
53270;BME280;39159;45.634;9.420;2023-05-09T03:28:04;99120.91;;;15.62;100.00
53270;BME280;39159;45.634;9.420;2023-05-09T03:30:29;99122.06;;;15.61;100.00
53270;BME280;39159;45.634;9.420;2023-05-09T03:32:55;99124.13;;;15.64;100.00
53270;BME280;39159;45.634;9.420;2023-05-09T03:35:20;99117.34;;;15.61;100.00
53270;BME280;39159;45.634;9.420;2023-05-09T03:37:46;99122.50;;;15.63;100.00
53270;BME280;39159;45.634;9.420;2023-05-09T03:40:11;99117.69;;;15.60;100.00
53270;BME280;39159;45.634;9.420;2023-05-09T03:42:37;99121.38;;;15.64;100.00
53270;BME280;39159;45.634;9.420;2023-05-09T03:45:03;99123.44;;;15.67;100.00
53270;BME280;39159;45.634;9.420;2023-05-09T03:47:29;99114.72;;;15.65;100.00
53270;BME280;39159;45.634;9.420;2023-05-09T03:49:54;99113.25;;;15.67;100.00
53270;BME280;39159;45.634;9.420;2023-05-09T03:52:19;99104.38;;;15.62;100.00
53270;BME280;39159;45.634;9.420;2023-05-09T03:54:45;99111.38;;;15.59;100.00
53270;BME280;39159;45.634;9.420;2023-05-09T03:57:10;99112.41;;;15.54;100.00
53270;BME280;39159;45.634;9.420;2023-05-09T03:59:36;99117.91;;;15.54;100.00
53270;BME280;39159;45.634;9.420;2023-05-09T04:02:02;99125.66;;;15.52;100.00
53270;BME280;39159;45.634;9.420;2023-05-09T04:04:28;99124.06;;;15.51;100.00
53270;BME280;39159;45.634;9.420;2023-05-09T04:06:53;99122.13;;;15.52;100.00
53270;BME280;39159;45.634;9.420;2023-05-09T04:09:19;99120.97;;;15.53;100.00
53270;BME280;39159;45.634;9.420;2023-05-09T04:11:44;99120.66;;;15.54;100.00
53270;BME280;39159;45.634;9.420;2023-05-09T04:14:10;99118.00;;;15.58;100.00
53270;BME280;39159;45.634;9.420;2023-05-09T04:16:36;99117.34;;;15.61;100.00
53270;BME280;39159;45.634;9.420;2023-05-09T04:19:01;99117.94;;;15.67;100.00
53270;BME280;39159;45.634;9.420;2023-05-09T04:21:27;99116.81;;;15.68;100.00
53270;BME280;39159;45.634;9.420;2023-05-09T04:23:52;99120.16;;;15.73;100.00
53270;BME280;39159;45.634;9.420;2023-05-09T04:26:18;99112.38;;;15.75;100.00
53270;BME280;39159;45.634;9.420;2023-05-09T04:28:43;99117.22;;;15.79;100.00
53270;BME280;39159;45.634;9.420;2023-05-09T04:31:09;99114.59;;;15.82;100.00
53270;BME280;39159;45.634;9.420;2023-05-09T04:33:36;99111.59;;;15.87;100.00
53270;BME280;39159;45.634;9.420;2023-05-09T04:36:03;99117.38;;;15.94;100.00
53270;BME280;39159;45.634;9.420;2023-05-09T04:38:29;99127.25;;;15.95;100.00
53270;BME280;39159;45.634;9.420;2023-05-09T04:40:54;99130.78;;;15.96;100.00
53270;BME280;39159;45.634;9.420;2023-05-09T04:43:19;99124.50;;;15.95;100.00
53270;BME280;39159;45.634;9.420;2023-05-09T04:45:45;99123.22;;;15.93;100.00
53270;BME280;39159;45.634;9.420;2023-05-09T04:48:10;99125.03;;;15.89;100.00
53270;BME280;39159;45.634;9.420;2023-05-09T04:50:36;99122.84;;;15.82;100.00
53270;BME280;39159;45.634;9.420;2023-05-09T04:53:01;99133.84;;;15.82;100.00
53270;BME280;39159;45.634;9.420;2023-05-09T04:55:27;99134.88;;;15.78;100.00
53270;BME280;39159;45.634;9.420;2023-05-09T04:57:52;99132.91;;;15.78;100.00
53270;BME280;39159;45.634;9.420;2023-05-09T05:00:18;99133.38;;;15.80;100.00
53270;BME280;39159;45.634;9.420;2023-05-09T05:02:44;99127.56;;;15.61;100.00
53270;BME280;39159;45.634;9.420;2023-05-09T05:05:09;99133.84;;;15.61;100.00
53270;BME280;39159;45.634;9.420;2023-05-09T05:07:36;99131.22;;;15.65;100.00
53270;BME280;39159;45.634;9.420;2023-05-09T05:10:01;99138.56;;;15.61;100.00
53270;BME280;39159;45.634;9.420;2023-05-09T05:12:27;99135.88;;;15.52;100.00
53270;BME280;39159;45.634;9.420;2023-05-09T05:14:52;99135.41;;;15.50;100.00
53270;BME280;39159;45.634;9.420;2023-05-09T05:17:18;99145.25;;;15.51;100.00
53270;BME280;39159;45.634;9.420;2023-05-09T05:19:43;99143.50;;;15.46;100.00
53270;BME280;39159;45.634;9.420;2023-05-09T05:22:09;99146.75;;;15.48;100.00
53270;BME280;39159;45.634;9.420;2023-05-09T05:24:34;99139.44;;;15.52;100.00
53270;BME280;39159;45.634;9.420;2023-05-09T05:27:00;99143.44;;;15.55;100.00
53270;BME280;39159;45.634;9.420;2023-05-09T05:29:25;99133.25;;;15.55;100.00
53270;BME280;39159;45.634;9.420;2023-05-09T05:31:51;99130.97;;;15.58;100.00
53270;BME280;39159;45.634;9.420;2023-05-09T05:34:16;99131.97;;;15.53;100.00
53270;BME280;39159;45.634;9.420;2023-05-09T05:36:42;99140.00;;;15.58;100.00
53270;BME280;39159;45.634;9.420;2023-05-09T05:39:07;99142.44;;;15.60;100.00
53270;BME280;39159;45.634;9.420;2023-05-09T05:41:33;99149.34;;;15.66;100.00
53270;BME280;39159;45.634;9.420;2023-05-09T05:43:58;99149.16;;;15.71;100.00
53270;BME280;39159;45.634;9.420;2023-05-09T05:46:24;99156.41;;;15.75;100.00
53270;BME280;39159;45.634;9.420;2023-05-09T05:48:49;99148.41;;;15.83;100.00
53270;BME280;39159;45.634;9.420;2023-05-09T05:51:15;99140.50;;;15.81;100.00
53270;BME280;39159;45.634;9.420;2023-05-09T05:53:40;99142.34;;;15.89;100.00
53270;BME280;39159;45.634;9.420;2023-05-09T05:56:06;99144.34;;;16.01;100.00
53270;BME280;39159;45.634;9.420;2023-05-09T05:58:31;99148.38;;;16.04;100.00
53270;BME280;39159;45.634;9.420;2023-05-09T06:00:57;99149.31;;;16.08;100.00
53270;BME280;39159;45.634;9.420;2023-05-09T06:03:22;99149.41;;;16.11;100.00
53270;BME280;39159;45.634;9.420;2023-05-09T06:05:48;99146.75;;;16.03;100.00
53270;BME280;39159;45.634;9.420;2023-05-09T06:08:13;99142.88;;;16.04;100.00
53270;BME280;39159;45.634;9.420;2023-05-09T06:10:39;99140.97;;;15.83;100.00
53270;BME280;39159;45.634;9.420;2023-05-09T06:13:04;99134.53;;;15.79;100.00
53270;BME280;39159;45.634;9.420;2023-05-09T06:15:30;99130.50;;;15.77;100.00
53270;BME280;39159;45.634;9.420;2023-05-09T06:17:55;99125.47;;;15.79;100.00
53270;BME280;39159;45.634;9.420;2023-05-09T06:20:21;99129.97;;;15.83;100.00
53270;BME280;39159;45.634;9.420;2023-05-09T06:22:46;99131.56;;;15.84;100.00
53270;BME280;39159;45.634;9.420;2023-05-09T06:25:12;99130.63;;;15.80;100.00
53270;BME280;39159;45.634;9.420;2023-05-09T06:27:37;99138.22;;;15.83;100.00
53270;BME280;39159;45.634;9.420;2023-05-09T06:30:03;99130.75;;;15.84;100.00
53270;BME280;39159;45.634;9.420;2023-05-09T06:32:29;99132.78;;;15.74;100.00
53270;BME280;39159;45.634;9.420;2023-05-09T06:34:54;99131.78;;;15.79;100.00
53270;BME280;39159;45.634;9.420;2023-05-09T06:37:20;99131.09;;;15.82;100.00
53270;BME280;39159;45.634;9.420;2023-05-09T06:39:45;99138.22;;;15.83;100.00
53270;BME280;39159;45.634;9.420;2023-05-09T06:42:11;99134.41;;;15.75;100.00
53270;BME280;39159;45.634;9.420;2023-05-09T06:44:37;99133.38;;;15.80;100.00
53270;BME280;39159;45.634;9.420;2023-05-09T06:47:02;99139.03;;;15.84;100.00
53270;BME280;39159;45.634;9.420;2023-05-09T06:49:28;99141.88;;;15.87;100.00
53270;BME280;39159;45.634;9.420;2023-05-09T06:51:53;99141.00;;;15.95;100.00
53270;BME280;39159;45.634;9.420;2023-05-09T06:54:18;99142.06;;;16.03;100.00
53270;BME280;39159;45.634;9.420;2023-05-09T06:56:44;99140.19;;;15.95;100.00
53270;BME280;39159;45.634;9.420;2023-05-09T06:59:09;99149.88;;;16.01;100.00
53270;BME280;39159;45.634;9.420;2023-05-09T07:01:38;99147.66;;;15.94;100.00
53270;BME280;39159;45.634;9.420;2023-05-09T07:04:04;99145.84;;;15.99;100.00
53270;BME280;39159;45.634;9.420;2023-05-09T07:06:30;99146.56;;;16.08;100.00
53270;BME280;39159;45.634;9.420;2023-05-09T07:08:55;99155.63;;;16.08;100.00
53270;BME280;39159;45.634;9.420;2023-05-09T07:11:21;99147.69;;;16.07;100.00
53270;BME280;39159;45.634;9.420;2023-05-09T07:13:47;99150.91;;;16.09;100.00
53270;BME280;39159;45.634;9.420;2023-05-09T07:16:12;99142.97;;;16.07;100.00
53270;BME280;39159;45.634;9.420;2023-05-09T07:18:38;99147.72;;;16.19;100.00
53270;BME280;39159;45.634;9.420;2023-05-09T07:21:03;99154.59;;;16.13;100.00
53270;BME280;39159;45.634;9.420;2023-05-09T07:23:29;99147.59;;;16.15;100.00
53270;BME280;39159;45.634;9.420;2023-05-09T07:25:55;99156.09;;;16.10;100.00
53270;BME280;39159;45.634;9.420;2023-05-09T07:28:21;99149.19;;;16.04;100.00
53270;BME280;39159;45.634;9.420;2023-05-09T07:30:47;99150.69;;;16.14;100.00
53270;BME280;39159;45.634;9.420;2023-05-09T07:33:12;99147.91;;;16.02;100.00
53270;BME280;39159;45.634;9.420;2023-05-09T07:35:38;99148.03;;;16.05;100.00
53270;BME280;39159;45.634;9.420;2023-05-09T07:38:03;99152.31;;;16.15;100.00
53270;BME280;39159;45.634;9.420;2023-05-09T07:40:30;99143.97;;;16.24;100.00
53270;BME280;39159;45.634;9.420;2023-05-09T07:42:57;99140.88;;;16.25;100.00
53270;BME280;39159;45.634;9.420;2023-05-09T07:45:23;99142.47;;;16.26;100.00
53270;BME280;39159;45.634;9.420;2023-05-09T07:47:48;99139.94;;;16.33;100.00
53270;BME280;39159;45.634;9.420;2023-05-09T07:50:14;99133.28;;;16.22;100.00
53270;BME280;39159;45.634;9.420;2023-05-09T07:52:41;99134.06;;;16.23;100.00
53270;BME280;39159;45.634;9.420;2023-05-09T07:55:07;99133.97;;;16.19;100.00
53270;BME280;39159;45.634;9.420;2023-05-09T07:57:32;99122.75;;;16.36;100.00
53270;BME280;39159;45.634;9.420;2023-05-09T07:59:58;99123.00;;;16.44;100.00
53270;BME280;39159;45.634;9.420;2023-05-09T08:02:23;99120.22;;;16.44;100.00
53270;BME280;39159;45.634;9.420;2023-05-09T08:04:49;99117.72;;;16.51;100.00
53270;BME280;39159;45.634;9.420;2023-05-09T08:07:15;99119.31;;;16.64;100.00
53270;BME280;39159;45.634;9.420;2023-05-09T08:09:40;99113.69;;;16.73;100.00
53270;BME280;39159;45.634;9.420;2023-05-09T08:12:06;99115.44;;;16.90;100.00
53270;BME280;39159;45.634;9.420;2023-05-09T08:14:32;99110.25;;;17.01;100.00
53270;BME280;39159;45.634;9.420;2023-05-09T08:16:57;99105.09;;;16.99;100.00
53270;BME280;39159;45.634;9.420;2023-05-09T08:19:23;99109.13;;;16.89;100.00
53270;BME280;39159;45.634;9.420;2023-05-09T08:21:51;99107.84;;;16.87;100.00
53270;BME280;39159;45.634;9.420;2023-05-09T08:24:16;99103.34;;;17.07;100.00
53270;BME280;39159;45.634;9.420;2023-05-09T08:26:41;99099.22;;;17.81;100.00
53270;BME280;39159;45.634;9.420;2023-05-09T08:29:08;99094.47;;;18.42;95.43
53270;BME280;39159;45.634;9.420;2023-05-09T08:31:33;99088.84;;;18.70;95.22
53270;BME280;39159;45.634;9.420;2023-05-09T08:33:59;99089.25;;;19.04;89.88
53270;BME280;39159;45.634;9.420;2023-05-09T08:36:25;99085.22;;;19.37;87.54
53270;BME280;39159;45.634;9.420;2023-05-09T08:38:50;99087.66;;;19.22;88.19
53270;BME280;39159;45.634;9.420;2023-05-09T08:41:16;99085.88;;;19.30;87.34
53270;BME280;39159;45.634;9.420;2023-05-09T08:43:42;99092.28;;;19.34;87.15
53270;BME280;39159;45.634;9.420;2023-05-09T08:46:09;99083.81;;;19.27;85.30
53270;BME280;39159;45.634;9.420;2023-05-09T08:48:35;99093.00;;;19.51;83.14
53270;BME280;39159;45.634;9.420;2023-05-09T08:51:04;99090.94;;;19.67;83.77
53270;BME280;39159;45.634;9.420;2023-05-09T08:53:30;99092.88;;;19.82;83.77
53270;BME280;39159;45.634;9.420;2023-05-09T08:55:59;99094.06;;;20.27;80.26
53270;BME280;39159;45.634;9.420;2023-05-09T08:58:29;99090.38;;;20.20;79.26
53270;BME280;39159;45.634;9.420;2023-05-09T09:00:55;99099.28;;;19.86;81.72
53270;BME280;39159;45.634;9.420;2023-05-09T09:03:22;99090.31;;;20.16;81.69
53270;BME280;39159;45.634;9.420;2023-05-09T09:05:49;99087.16;;;20.41;79.89
53270;BME280;39159;45.634;9.420;2023-05-09T09:08:16;99088.72;;;20.15;80.38
53270;BME280;39159;45.634;9.420;2023-05-09T09:10:43;99084.72;;;20.13;81.52
53270;BME280;39159;45.634;9.420;2023-05-09T09:13:12;99079.91;;;20.33;82.26
53270;BME280;39159;45.634;9.420;2023-05-09T09:15:39;99070.59;;;20.44;80.48
53270;BME280;39159;45.634;9.420;2023-05-09T09:18:10;99081.06;;;20.78;81.72
53270;BME280;39159;45.634;9.420;2023-05-09T09:20:40;99070.06;;;20.85;79.36
53270;BME280;39159;45.634;9.420;2023-05-09T09:23:07;99073.06;;;20.73;80.99
53270;BME280;39159;45.634;9.420;2023-05-09T09:25:35;99072.44;;;21.13;78.05
53270;BME280;39159;45.634;9.420;2023-05-09T09:28:00;99071.25;;;21.14;75.46
53270;BME280;39159;45.634;9.420;2023-05-09T09:30:26;99065.97;;;20.75;78.02
53270;BME280;39159;45.634;9.420;2023-05-09T09:32:51;99072.69;;;20.74;78.06
53270;BME280;39159;45.634;9.420;2023-05-09T09:35:17;99075.16;;;20.79;81.55
53270;BME280;39159;45.634;9.420;2023-05-09T09:37:44;99069.09;;;21.00;76.05
53270;BME280;39159;45.634;9.420;2023-05-09T09:40:11;99075.84;;;20.73;78.73
53270;BME280;39159;45.634;9.420;2023-05-09T09:42:44;99068.00;;;20.55;78.97
53270;BME280;39159;45.634;9.420;2023-05-09T09:45:14;99060.19;;;20.87;81.44
53270;BME280;39159;45.634;9.420;2023-05-09T09:47:42;99066.31;;;21.00;77.87
53270;BME280;39159;45.634;9.420;2023-05-09T09:50:12;99055.66;;;20.76;77.64
53270;BME280;39159;45.634;9.420;2023-05-09T09:52:49;99052.69;;;20.38;77.70
53270;BME280;39159;45.634;9.420;2023-05-09T09:55:15;99054.63;;;20.87;77.71
53270;BME280;39159;45.634;9.420;2023-05-09T09:57:40;99051.97;;;21.25;74.38
53270;BME280;39159;45.634;9.420;2023-05-09T10:00:10;99050.75;;;21.22;75.29
53270;BME280;39159;45.634;9.420;2023-05-09T10:05:20;99045.34;;;21.33;74.16
53270;BME280;39159;45.634;9.420;2023-05-09T10:07:59;99047.41;;;21.09;72.14
53270;BME280;39159;45.634;9.420;2023-05-09T10:10:30;99043.38;;;21.33;77.00
53270;BME280;39159;45.634;9.420;2023-05-09T10:12:57;99048.31;;;21.81;71.15
53270;BME280;39159;45.634;9.420;2023-05-09T10:15:23;99043.81;;;22.10;70.92
53270;BME280;39159;45.634;9.420;2023-05-09T10:17:55;99047.22;;;22.34;65.29
53270;BME280;39159;45.634;9.420;2023-05-09T10:20:21;99043.91;;;21.77;65.33
53270;BME280;39159;45.634;9.420;2023-05-09T10:22:47;99042.44;;;21.52;66.63
53270;BME280;39159;45.634;9.420;2023-05-09T10:25:21;99030.63;;;21.63;68.68
53270;BME280;39159;45.634;9.420;2023-05-09T10:27:53;99025.34;;;21.88;66.24
53270;BME280;39159;45.634;9.420;2023-05-09T10:33:23;99016.28;;;22.39;64.17
53270;BME280;39159;45.634;9.420;2023-05-09T10:35:51;99021.59;;;22.14;64.75
53270;BME280;39159;45.634;9.420;2023-05-09T10:38:17;99028.78;;;22.19;63.72
53270;BME280;39159;45.634;9.420;2023-05-09T10:40:46;99032.56;;;21.96;66.53
53270;BME280;39159;45.634;9.420;2023-05-09T10:43:12;99022.06;;;21.79;67.60
53270;BME280;39159;45.634;9.420;2023-05-09T10:45:39;99022.69;;;21.61;66.42
53270;BME280;39159;45.634;9.420;2023-05-09T10:48:05;99015.41;;;21.46;66.92
53270;BME280;39159;45.634;9.420;2023-05-09T10:50:33;99015.19;;;21.65;67.82
53270;BME280;39159;45.634;9.420;2023-05-09T10:55:55;98998.69;;;21.42;69.33
53270;BME280;39159;45.634;9.420;2023-05-09T10:58:29;98996.81;;;21.53;65.87
53270;BME280;39159;45.634;9.420;2023-05-09T11:00:59;98988.38;;;21.43;66.00
53270;BME280;39159;45.634;9.420;2023-05-09T11:03:26;98984.72;;;21.72;68.29
53270;BME280;39159;45.634;9.420;2023-05-09T11:05:53;98982.47;;;21.89;67.23
53270;BME280;39159;45.634;9.420;2023-05-09T11:08:20;98983.09;;;22.12;65.98
53270;BME280;39159;45.634;9.420;2023-05-09T11:10:46;98974.28;;;22.03;64.47
53270;BME280;39159;45.634;9.420;2023-05-09T11:13:11;98967.94;;;22.06;66.92
53270;BME280;39159;45.634;9.420;2023-05-09T11:18:26;98959.25;;;22.11;64.13
53270;BME280;39159;45.634;9.420;2023-05-09T11:20:53;98956.78;;;21.99;67.11
53270;BME280;39159;45.634;9.420;2023-05-09T11:23:19;98951.28;;;22.06;69.35
53270;BME280;39159;45.634;9.420;2023-05-09T11:25:46;98957.50;;;22.37;67.79
53270;BME280;39159;45.634;9.420;2023-05-09T11:28:35;98949.16;;;22.37;65.05
53270;BME280;39159;45.634;9.420;2023-05-09T11:33:36;98952.69;;;22.30;64.62
53270;BME280;39159;45.634;9.420;2023-05-09T11:39:03;98946.97;;;21.30;68.62
53270;BME280;39159;45.634;9.420;2023-05-09T11:41:29;98944.84;;;21.50;69.56
53270;BME280;39159;45.634;9.420;2023-05-09T11:43:55;98940.53;;;21.57;70.07
53270;BME280;39159;45.634;9.420;2023-05-09T11:46:22;98935.47;;;21.69;65.71
53270;BME280;39159;45.634;9.420;2023-05-09T11:48:48;98928.00;;;22.25;65.08
53270;BME280;39159;45.634;9.420;2023-05-09T11:51:17;98926.56;;;22.46;62.81
53270;BME280;39159;45.634;9.420;2023-05-09T11:53:44;98922.00;;;22.86;63.73
53270;BME280;39159;45.634;9.420;2023-05-09T11:56:11;98908.47;;;22.88;58.72
53270;BME280;39159;45.634;9.420;2023-05-09T11:58:38;98903.16;;;22.50;61.97
53270;BME280;39159;45.634;9.420;2023-05-09T12:01:04;98905.09;;;22.46;62.93
53270;BME280;39159;45.634;9.420;2023-05-09T12:03:29;98901.94;;;22.48;62.67
53270;BME280;39159;45.634;9.420;2023-05-09T12:05:55;98902.06;;;22.76;60.27
53270;BME280;39159;45.634;9.420;2023-05-09T12:08:23;98892.56;;;22.81;59.00
53270;BME280;39159;45.634;9.420;2023-05-09T12:10:49;98885.13;;;23.17;61.09
53270;BME280;39159;45.634;9.420;2023-05-09T12:13:15;98884.75;;;23.26;60.45
53270;BME280;39159;45.634;9.420;2023-05-09T12:15:42;98882.75;;;23.23;62.22
53270;BME280;39159;45.634;9.420;2023-05-09T12:18:07;98886.16;;;22.73;62.38
53270;BME280;39159;45.634;9.420;2023-05-09T12:21:02;98875.03;;;22.73;63.20
53270;BME280;39159;45.634;9.420;2023-05-09T12:23:33;98871.00;;;22.60;62.80
53270;BME280;39159;45.634;9.420;2023-05-09T12:25:59;98867.19;;;22.17;63.24
53270;BME280;39159;45.634;9.420;2023-05-09T12:28:25;98867.03;;;21.95;65.59
53270;BME280;39159;45.634;9.420;2023-05-09T12:30:52;98869.97;;;22.20;65.92
53270;BME280;39159;45.634;9.420;2023-05-09T12:33:18;98862.97;;;22.44;64.41
53270;BME280;39159;45.634;9.420;2023-05-09T12:35:45;98859.81;;;22.49;65.33
53270;BME280;39159;45.634;9.420;2023-05-09T12:38:13;98852.28;;;22.53;64.36
53270;BME280;39159;45.634;9.420;2023-05-09T12:40:40;98847.97;;;22.60;63.56
53270;BME280;39159;45.634;9.420;2023-05-09T12:43:07;98849.88;;;22.41;66.21
53270;BME280;39159;45.634;9.420;2023-05-09T12:45:32;98854.78;;;22.03;67.13
53270;BME280;39159;45.634;9.420;2023-05-09T12:47:58;98840.50;;;22.01;66.39
53270;BME280;39159;45.634;9.420;2023-05-09T12:50:32;98837.31;;;22.03;65.64
53270;BME280;39159;45.634;9.420;2023-05-09T12:53:02;98838.88;;;21.97;65.70
53270;BME280;39159;45.634;9.420;2023-05-09T12:55:29;98836.19;;;22.14;65.10
53270;BME280;39159;45.634;9.420;2023-05-09T12:58:02;98831.75;;;22.03;67.11
53270;BME280;39159;45.634;9.420;2023-05-09T13:00:28;98835.00;;;22.15;65.81
53270;BME280;39159;45.634;9.420;2023-05-09T13:02:53;98827.44;;;22.12;65.18
53270;BME280;39159;45.634;9.420;2023-05-09T13:05:20;98831.00;;;22.09;66.47
53270;BME280;39159;45.634;9.420;2023-05-09T13:07:50;98822.13;;;21.89;67.04
53270;BME280;39159;45.634;9.420;2023-05-09T13:10:25;98811.09;;;22.00;67.53
53270;BME280;39159;45.634;9.420;2023-05-09T13:12:52;98816.00;;;22.25;64.86